sensor_id;sensor_type;location;lat;lon;timestamp;pressure;altitude;pressure_sealevel;temperature;humidity
74327;BME280;62745;51.060;13.786;2022-09-09T00:02:13;99926.34;;;13.78;90.69
74327;BME280;62745;51.060;13.786;2022-09-09T00:04:40;99928.84;;;13.73;92.23
74327;BME280;62745;51.060;13.786;2022-09-09T00:07:34;99937.78;;;13.67;92.23
74327;BME280;62745;51.060;13.786;2022-09-09T00:10:22;99922.19;;;13.57;91.53
74327;BME280;62745;51.060;13.786;2022-09-09T00:15:33;99922.41;;;13.55;92.40
74327;BME280;62745;51.060;13.786;2022-09-09T00:18:03;99924.63;;;13.59;93.51
74327;BME280;62745;51.060;13.786;2022-09-09T00:20:44;99933.91;;;13.63;94.30
74327;BME280;62745;51.060;13.786;2022-09-09T00:23:27;99921.81;;;13.53;92.48
74327;BME280;62745;51.060;13.786;2022-09-09T00:26:14;99920.00;;;13.47;91.97
74327;BME280;62745;51.060;13.786;2022-09-09T00:28:48;99928.09;;;13.66;92.71
74327;BME280;62745;51.060;13.786;2022-09-09T00:31:21;99924.31;;;13.48;92.68
74327;BME280;62745;51.060;13.786;2022-09-09T00:33:49;99923.88;;;13.51;93.90
74327;BME280;62745;51.060;13.786;2022-09-09T00:36:18;99923.31;;;13.43;94.19
74327;BME280;62745;51.060;13.786;2022-09-09T00:38:52;99917.56;;;13.39;92.65
74327;BME280;62745;51.060;13.786;2022-09-09T00:41:43;99934.84;;;13.50;94.28
74327;BME280;62745;51.060;13.786;2022-09-09T00:44:32;99928.91;;;13.41;92.45
74327;BME280;62745;51.060;13.786;2022-09-09T00:47:17;99932.03;;;13.38;94.66
74327;BME280;62745;51.060;13.786;2022-09-09T00:52:44;99926.81;;;13.43;93.96
74327;BME280;62745;51.060;13.786;2022-09-09T00:57:49;99918.41;;;13.40;94.21
74327;BME280;62745;51.060;13.786;2022-09-09T01:00:28;99935.22;;;13.53;93.92
74327;BME280;62745;51.060;13.786;2022-09-09T01:03:13;99928.06;;;13.47;93.03
74327;BME280;62745;51.060;13.786;2022-09-09T01:11:24;99942.63;;;13.27;94.42
74327;BME280;62745;51.060;13.786;2022-09-09T01:13:58;99943.53;;;13.14;93.81
74327;BME280;62745;51.060;13.786;2022-09-09T01:16:26;99932.28;;;12.99;95.20
74327;BME280;62745;51.060;13.786;2022-09-09T01:18:54;99941.38;;;12.98;95.16
74327;BME280;62745;51.060;13.786;2022-09-09T01:21:35;99931.06;;;12.94;95.47
74327;BME280;62745;51.060;13.786;2022-09-09T01:26:42;99945.69;;;12.99;96.36
74327;BME280;62745;51.060;13.786;2022-09-09T01:29:11;99941.38;;;12.91;95.78
74327;BME280;62745;51.060;13.786;2022-09-09T01:31:53;99933.56;;;12.89;95.83
74327;BME280;62745;51.060;13.786;2022-09-09T01:34:19;99924.97;;;12.81;96.69
74327;BME280;62745;51.060;13.786;2022-09-09T01:37:05;99930.75;;;12.78;96.26
74327;BME280;62745;51.060;13.786;2022-09-09T01:39:33;99922.13;;;12.69;96.48
74327;BME280;62745;51.060;13.786;2022-09-09T01:42:00;99923.31;;;12.80;96.34
74327;BME280;62745;51.060;13.786;2022-09-09T01:44:27;99929.44;;;12.93;96.74
74327;BME280;62745;51.060;13.786;2022-09-09T01:46:52;99927.97;;;12.91;95.97
74327;BME280;62745;51.060;13.786;2022-09-09T01:49:18;99928.19;;;12.89;95.37
74327;BME280;62745;51.060;13.786;2022-09-09T01:51:46;99929.06;;;12.83;96.00
74327;BME280;62745;51.060;13.786;2022-09-09T01:54:13;99924.97;;;12.81;95.98
74327;BME280;62745;51.060;13.786;2022-09-09T02:02:35;99921.06;;;12.77;95.98
74327;BME280;62745;51.060;13.786;2022-09-09T02:07:43;99917.63;;;12.63;96.01
74327;BME280;62745;51.060;13.786;2022-09-09T02:12:45;99919.72;;;12.61;96.54
74327;BME280;62745;51.060;13.786;2022-09-09T02:15:32;99920.09;;;12.58;96.75
74327;BME280;62745;51.060;13.786;2022-09-09T02:18:01;99922.94;;;12.70;96.79
74327;BME280;62745;51.060;13.786;2022-09-09T02:20:32;99918.69;;;12.55;96.68
74327;BME280;62745;51.060;13.786;2022-09-09T02:22:58;99917.66;;;12.56;96.80
74327;BME280;62745;51.060;13.786;2022-09-09T02:25:27;99927.06;;;12.72;96.89
74327;BME280;62745;51.060;13.786;2022-09-09T02:27:54;99932.84;;;12.69;95.62
74327;BME280;62745;51.060;13.786;2022-09-09T02:30:20;99927.31;;;12.64;96.60
74327;BME280;62745;51.060;13.786;2022-09-09T02:32:48;99929.34;;;12.69;96.63
74327;BME280;62745;51.060;13.786;2022-09-09T02:35:19;99920.91;;;12.65;96.20
74327;BME280;62745;51.060;13.786;2022-09-09T02:37:46;99926.94;;;12.60;96.51
74327;BME280;62745;51.060;13.786;2022-09-09T02:40:12;99931.47;;;12.53;96.20
74327;BME280;62745;51.060;13.786;2022-09-09T02:42:45;99930.22;;;12.56;96.88
74327;BME280;62745;51.060;13.786;2022-09-09T02:45:13;99929.63;;;12.54;96.73
74327;BME280;62745;51.060;13.786;2022-09-09T02:48:04;99917.28;;;12.46;96.44
74327;BME280;62745;51.060;13.786;2022-09-09T02:50:41;99926.50;;;12.63;95.89
74327;BME280;62745;51.060;13.786;2022-09-09T02:53:29;99925.72;;;12.50;94.91
74327;BME280;62745;51.060;13.786;2022-09-09T02:56:01;99927.16;;;12.52;95.79
74327;BME280;62745;51.060;13.786;2022-09-09T02:58:29;99933.13;;;12.54;95.82
74327;BME280;62745;51.060;13.786;2022-09-09T03:00:55;99928.22;;;12.45;95.29
74327;BME280;62745;51.060;13.786;2022-09-09T03:03:23;99925.34;;;12.40;95.07
74327;BME280;62745;51.060;13.786;2022-09-09T03:05:48;99927.66;;;12.29;95.10
74327;BME280;62745;51.060;13.786;2022-09-09T03:08:14;99921.47;;;12.29;95.25
74327;BME280;62745;51.060;13.786;2022-09-09T03:10:39;99935.28;;;12.26;95.26
74327;BME280;62745;51.060;13.786;2022-09-09T03:13:05;99939.00;;;12.18;95.85
74327;BME280;62745;51.060;13.786;2022-09-09T03:15:32;99939.13;;;12.50;96.52
74327;BME280;62745;51.060;13.786;2022-09-09T03:17:58;99928.88;;;12.33;95.60
74327;BME280;62745;51.060;13.786;2022-09-09T03:20:25;99933.03;;;12.23;95.53
74327;BME280;62745;51.060;13.786;2022-09-09T03:22:52;99931.81;;;12.19;95.77
74327;BME280;62745;51.060;13.786;2022-09-09T03:25:17;99945.81;;;12.21;96.27
74327;BME280;62745;51.060;13.786;2022-09-09T03:27:43;99932.63;;;12.19;95.91
74327;BME280;62745;51.060;13.786;2022-09-09T03:30:08;99931.75;;;12.32;96.24
74327;BME280;62745;51.060;13.786;2022-09-09T03:32:34;99945.16;;;12.32;96.16
74327;BME280;62745;51.060;13.786;2022-09-09T03:34:59;99934.88;;;12.29;95.86
74327;BME280;62745;51.060;13.786;2022-09-09T03:37:25;99939.81;;;12.25;95.62
74327;BME280;62745;51.060;13.786;2022-09-09T03:39:50;99935.91;;;12.28;96.19
74327;BME280;62745;51.060;13.786;2022-09-09T03:42:15;99944.16;;;12.20;96.06
74327;BME280;62745;51.060;13.786;2022-09-09T03:44:44;99935.53;;;12.11;96.15
74327;BME280;62745;51.060;13.786;2022-09-09T03:47:15;99928.72;;;12.15;96.39
74327;BME280;62745;51.060;13.786;2022-09-09T03:49:40;99923.19;;;12.03;96.91
74327;BME280;62745;51.060;13.786;2022-09-09T03:52:05;99925.81;;;12.23;97.18
74327;BME280;62745;51.060;13.786;2022-09-09T03:54:30;99928.00;;;12.46;96.73
74327;BME280;62745;51.060;13.786;2022-09-09T03:56:56;99940.59;;;12.46;95.42
74327;BME280;62745;51.060;13.786;2022-09-09T03:59:21;99927.66;;;12.29;95.59
74327;BME280;62745;51.060;13.786;2022-09-09T04:01:47;99932.41;;;12.27;95.81
74327;BME280;62745;51.060;13.786;2022-09-09T04:04:12;99932.41;;;12.21;94.99
74327;BME280;62745;51.060;13.786;2022-09-09T04:06:38;99932.00;;;12.17;95.08
74327;BME280;62745;51.060;13.786;2022-09-09T04:09:03;99937.78;;;12.14;94.76
74327;BME280;62745;51.060;13.786;2022-09-09T04:11:28;99942.53;;;12.12;96.19
74327;BME280;62745;51.060;13.786;2022-09-09T04:13:54;99939.81;;;12.25;96.61
74327;BME280;62745;51.060;13.786;2022-09-09T04:16:19;99945.56;;;12.35;95.26
74327;BME280;62745;51.060;13.786;2022-09-09T04:18:45;99935.44;;;12.38;95.65
74327;BME280;62745;51.060;13.786;2022-09-09T04:21:10;99932.59;;;12.32;95.22
74327;BME280;62745;51.060;13.786;2022-09-09T04:23:37;99933.09;;;12.61;94.58
74327;BME280;62745;51.060;13.786;2022-09-09T04:26:03;99940.44;;;12.72;93.68
74327;BME280;62745;51.060;13.786;2022-09-09T04:28:30;99942.53;;;12.70;94.24
74327;BME280;62745;51.060;13.786;2022-09-09T04:30:56;99948.16;;;12.62;93.92
74327;BME280;62745;51.060;13.786;2022-09-09T04:33:23;99944.47;;;12.50;93.83
74327;BME280;62745;51.060;13.786;2022-09-09T04:35:51;99944.69;;;12.48;93.99
74327;BME280;62745;51.060;13.786;2022-09-09T04:38:17;99948.84;;;12.44;94.77
74327;BME280;62745;51.060;13.786;2022-09-09T04:40:47;99940.59;;;12.39;94.55
74327;BME280;62745;51.060;13.786;2022-09-09T04:43:12;99943.47;;;12.38;95.23
74327;BME280;62745;51.060;13.786;2022-09-09T04:45:39;99947.19;;;12.37;94.75
74327;BME280;62745;51.060;13.786;2022-09-09T04:48:05;99936.44;;;12.50;95.26
74327;BME280;62745;51.060;13.786;2022-09-09T04:50:31;99943.88;;;12.48;95.06
74327;BME280;62745;51.060;13.786;2022-09-09T04:53:00;99948.16;;;12.62;94.64
74327;BME280;62745;51.060;13.786;2022-09-09T04:55:25;99939.06;;;12.63;94.32
74327;BME280;62745;51.060;13.786;2022-09-09T04:57:51;99950.22;;;12.60;93.92
74327;BME280;62745;51.060;13.786;2022-09-09T05:00:16;99948.16;;;12.55;93.95
74327;BME280;62745;51.060;13.786;2022-09-09T05:02:42;99946.50;;;12.54;94.36
74327;BME280;62745;51.060;13.786;2022-09-09T05:05:07;99955.69;;;12.78;94.68
74327;BME280;62745;51.060;13.786;2022-09-09T05:07:33;99952.38;;;12.76;94.27
74327;BME280;62745;51.060;13.786;2022-09-09T05:09:58;99950.19;;;13.05;93.63
74327;BME280;62745;51.060;13.786;2022-09-09T05:12:24;99947.72;;;13.03;93.16
74327;BME280;62745;51.060;13.786;2022-09-09T05:14:51;99958.72;;;12.95;91.58
74327;BME280;62745;51.060;13.786;2022-09-09T05:17:16;99952.94;;;12.91;91.93
74327;BME280;62745;51.060;13.786;2022-09-09T05:19:41;99957.63;;;13.03;92.40
74327;BME280;62745;51.060;13.786;2022-09-09T05:22:06;99953.81;;;13.17;92.02
74327;BME280;62745;51.060;13.786;2022-09-09T05:24:32;99964.38;;;13.18;92.70
74327;BME280;62745;51.060;13.786;2022-09-09T05:26:58;99954.25;;;13.20;92.74
74327;BME280;62745;51.060;13.786;2022-09-09T05:29:26;99961.00;;;13.30;92.08
74327;BME280;62745;51.060;13.786;2022-09-09T05:31:51;99948.00;;;13.27;92.19
74327;BME280;62745;51.060;13.786;2022-09-09T05:34:16;99958.19;;;13.43;91.22
74327;BME280;62745;51.060;13.786;2022-09-09T05:36:42;99968.75;;;13.44;90.06
74327;BME280;62745;51.060;13.786;2022-09-09T05:39:07;99968.47;;;13.52;89.02
74327;BME280;62745;51.060;13.786;2022-09-09T05:41:32;99979.78;;;13.61;89.63
74327;BME280;62745;51.060;13.786;2022-09-09T05:43:58;99980.38;;;13.63;89.46
74327;BME280;62745;51.060;13.786;2022-09-09T05:46:26;99988.28;;;13.76;90.38
74327;BME280;62745;51.060;13.786;2022-09-09T05:48:52;99981.84;;;13.84;90.55
74327;BME280;62745;51.060;13.786;2022-09-09T05:51:20;99974.97;;;13.88;90.53
74327;BME280;62745;51.060;13.786;2022-09-09T05:53:47;99980.25;;;14.01;90.60
74327;BME280;62745;51.060;13.786;2022-09-09T05:56:15;99981.81;;;14.09;90.34
74327;BME280;62745;51.060;13.786;2022-09-09T05:58:41;99988.31;;;14.20;87.62
74327;BME280;62745;51.060;13.786;2022-09-09T06:01:11;99989.16;;;14.38;85.06
74327;BME280;62745;51.060;13.786;2022-09-09T06:03:38;99991.81;;;14.45;85.42
74327;BME280;62745;51.060;13.786;2022-09-09T06:06:06;99986.72;;;14.55;84.33
74327;BME280;62745;51.060;13.786;2022-09-09T06:08:37;99992.63;;;14.64;84.31
74327;BME280;62745;51.060;13.786;2022-09-09T06:11:06;99981.94;;;14.75;83.86
74327;BME280;62745;51.060;13.786;2022-09-09T06:16:55;99981.94;;;15.05;83.18
74327;BME280;62745;51.060;13.786;2022-09-09T06:19:21;99977.41;;;15.06;81.71
74327;BME280;62745;51.060;13.786;2022-09-09T06:21:46;99975.06;;;15.10;82.00
74327;BME280;62745;51.060;13.786;2022-09-09T06:24:13;99984.00;;;15.22;82.11
74327;BME280;62745;51.060;13.786;2022-09-09T06:26:42;99977.22;;;15.19;81.76
74327;BME280;62745;51.060;13.786;2022-09-09T06:29:08;99969.59;;;15.16;80.09
74327;BME280;62745;51.060;13.786;2022-09-09T06:31:35;99978.75;;;15.27;80.49
74327;BME280;62745;51.060;13.786;2022-09-09T06:34:04;99984.50;;;15.30;80.80
74327;BME280;62745;51.060;13.786;2022-09-09T06:36:31;99987.91;;;15.38;80.98
74327;BME280;62745;51.060;13.786;2022-09-09T06:38:58;99983.03;;;15.46;82.60
74327;BME280;62745;51.060;13.786;2022-09-09T06:41:25;99986.66;;;15.52;80.84
74327;BME280;62745;51.060;13.786;2022-09-09T06:43:54;99992.41;;;15.55;80.48
74327;BME280;62745;51.060;13.786;2022-09-09T06:46:25;99979.25;;;15.66;80.22
74327;BME280;62745;51.060;13.786;2022-09-09T06:48:54;99986.88;;;15.80;78.05
74327;BME280;62745;51.060;13.786;2022-09-09T06:51:27;99992.59;;;15.95;78.57
74327;BME280;62745;51.060;13.786;2022-09-09T06:53:55;99976.09;;;16.04;77.94
74327;BME280;62745;51.060;13.786;2022-09-09T06:56:31;99982.53;;;16.26;76.63
74327;BME280;62745;51.060;13.786;2022-09-09T06:58:59;99981.38;;;16.34;76.38
74327;BME280;62745;51.060;13.786;2022-09-09T07:01:27;99984.03;;;16.45;76.89
74327;BME280;62745;51.060;13.786;2022-09-09T07:03:55;99983.53;;;16.60;76.87
74327;BME280;62745;51.060;13.786;2022-09-09T07:06:23;99978.81;;;16.79;75.00
74327;BME280;62745;51.060;13.786;2022-09-09T07:08:53;99985.28;;;17.06;75.63
74327;BME280;62745;51.060;13.786;2022-09-09T07:11:19;99978.88;;;17.24;75.46
74327;BME280;62745;51.060;13.786;2022-09-09T07:13:44;99979.78;;;17.30;72.62
74327;BME280;62745;51.060;13.786;2022-09-09T07:16:12;99979.88;;;17.35;71.67
74327;BME280;62745;51.060;13.786;2022-09-09T07:18:39;99984.75;;;17.50;72.54
74327;BME280;62745;51.060;13.786;2022-09-09T07:21:04;99977.03;;;17.58;70.91
74327;BME280;62745;51.060;13.786;2022-09-09T07:23:31;99982.72;;;17.73;72.86
74327;BME280;62745;51.060;13.786;2022-09-09T07:25:57;99976.81;;;17.77;71.02
74327;BME280;62745;51.060;13.786;2022-09-09T07:28:23;99980.91;;;17.79;70.53
74327;BME280;62745;51.060;13.786;2022-09-09T07:30:56;99980.84;;;17.91;70.72
74327;BME280;62745;51.060;13.786;2022-09-09T07:33:22;99983.53;;;18.08;70.04
74327;BME280;62745;51.060;13.786;2022-09-09T07:35:48;99985.47;;;18.12;70.35
74327;BME280;62745;51.060;13.786;2022-09-09T07:38:13;99980.50;;;18.04;67.81
74327;BME280;62745;51.060;13.786;2022-09-09T07:40:39;99984.25;;;18.20;68.54
74327;BME280;62745;51.060;13.786;2022-09-09T07:43:05;99989.56;;;18.31;68.85
74327;BME280;62745;51.060;13.786;2022-09-09T07:45:30;99979.69;;;18.42;68.69
74327;BME280;62745;51.060;13.786;2022-09-09T07:47:58;99974.72;;;18.56;69.56
74327;BME280;62745;51.060;13.786;2022-09-09T07:50:23;99973.38;;;18.75;67.47
74327;BME280;62745;51.060;13.786;2022-09-09T07:52:50;99981.72;;;18.96;65.78
74327;BME280;62745;51.060;13.786;2022-09-09T07:55:16;99959.19;;;18.90;64.82
74327;BME280;62745;51.060;13.786;2022-09-09T07:57:41;99978.31;;;19.05;65.19
74327;BME280;62745;51.060;13.786;2022-09-09T08:00:07;99985.16;;;19.40;65.04
74327;BME280;62745;51.060;13.786;2022-09-09T08:02:32;99979.25;;;19.70;63.97
74327;BME280;62745;51.060;13.786;2022-09-09T08:04:57;99977.59;;;20.01;63.32
74327;BME280;62745;51.060;13.786;2022-09-09T08:07:23;99975.84;;;20.27;61.71
74327;BME280;62745;51.060;13.786;2022-09-09T08:09:48;99986.63;;;20.64;62.03
74327;BME280;62745;51.060;13.786;2022-09-09T08:12:14;99985.34;;;20.82;61.12
74327;BME280;62745;51.060;13.786;2022-09-09T08:14:39;99986.19;;;20.87;61.84
74327;BME280;62745;51.060;13.786;2022-09-09T08:17:05;99984.84;;;20.90;61.75
74327;BME280;62745;51.060;13.786;2022-09-09T08:19:30;99982.06;;;20.69;61.22
74327;BME280;62745;51.060;13.786;2022-09-09T08:21:58;99992.31;;;20.57;63.15
74327;BME280;62745;51.060;13.786;2022-09-09T08:24:24;99995.28;;;20.56;64.37
74327;BME280;62745;51.060;13.786;2022-09-09T08:26:49;99977.81;;;20.36;64.72
74327;BME280;62745;51.060;13.786;2022-09-09T08:29:15;99993.59;;;20.45;65.23
74327;BME280;62745;51.060;13.786;2022-09-09T08:31:44;99987.56;;;20.37;65.39
74327;BME280;62745;51.060;13.786;2022-09-09T08:34:10;100006.16;;;20.56;66.37
74327;BME280;62745;51.060;13.786;2022-09-09T08:36:38;100005.69;;;20.74;66.85
74327;BME280;62745;51.060;13.786;2022-09-09T08:39:06;99995.50;;;21.12;65.31
74327;BME280;62745;51.060;13.786;2022-09-09T08:47:17;100013.81;;;21.37;63.64
74327;BME280;62745;51.060;13.786;2022-09-09T08:55:39;99991.78;;;21.43;62.54
74327;BME280;62745;51.060;13.786;2022-09-09T08:58:18;99986.91;;;21.55;63.23
74327;BME280;62745;51.060;13.786;2022-09-09T09:00:54;100008.13;;;21.89;62.14
74327;BME280;62745;51.060;13.786;2022-09-09T09:09:38;100011.38;;;21.76;62.16
74327;BME280;62745;51.060;13.786;2022-09-09T09:12:19;100005.66;;;21.62;62.66
74327;BME280;62745;51.060;13.786;2022-09-09T09:14:47;100002.13;;;21.56;63.33
74327;BME280;62745;51.060;13.786;2022-09-09T09:17:16;99992.59;;;21.49;64.37
74327;BME280;62745;51.060;13.786;2022-09-09T09:19:42;100009.19;;;21.42;64.55
74327;BME280;62745;51.060;13.786;2022-09-09T09:25:08;100006.63;;;21.00;66.30
74327;BME280;62745;51.060;13.786;2022-09-09T09:27:43;100012.81;;;20.85;68.59
74327;BME280;62745;51.060;13.786;2022-09-09T09:30:19;100048.84;;;20.70;69.96
74327;BME280;62745;51.060;13.786;2022-09-09T09:32:58;100051.75;;;20.17;72.04
74327;BME280;62745;51.060;13.786;2022-09-09T09:35:25;100036.84;;;19.33;72.55
74327;BME280;62745;51.060;13.786;2022-09-09T09:37:50;100036.94;;;19.16;74.31
74327;BME280;62745;51.060;13.786;2022-09-09T09:40:18;100039.41;;;19.18;74.97
74327;BME280;62745;51.060;13.786;2022-09-09T09:45:41;100035.09;;;19.22;77.54
74327;BME280;62745;51.060;13.786;2022-09-09T09:48:11;100031.63;;;19.27;79.93
74327;BME280;62745;51.060;13.786;2022-09-09T09:50:56;100035.81;;;19.39;78.49
74327;BME280;62745;51.060;13.786;2022-09-09T09:53:33;100033.03;;;19.56;78.75
74327;BME280;62745;51.060;13.786;2022-09-09T09:56:05;100036.16;;;19.48;80.71
74327;BME280;62745;51.060;13.786;2022-09-09T09:58:33;100026.69;;;19.72;80.54
74327;BME280;62745;51.060;13.786;2022-09-09T10:01:02;100030.91;;;19.90;77.25
74327;BME280;62745;51.060;13.786;2022-09-09T10:03:30;100033.63;;;20.27;78.30
74327;BME280;62745;51.060;13.786;2022-09-09T10:05:56;100028.97;;;20.60;76.44
74327;BME280;62745;51.060;13.786;2022-09-09T10:08:23;100024.50;;;20.91;74.23
74327;BME280;62745;51.060;13.786;2022-09-09T10:11:12;100024.09;;;21.29;72.24
74327;BME280;62745;51.060;13.786;2022-09-09T10:19:30;100011.94;;;22.03;66.82
74327;BME280;62745;51.060;13.786;2022-09-09T10:23:04;100009.44;;;22.42;67.83
74327;BME280;62745;51.060;13.786;2022-09-09T10:30:55;99997.81;;;23.01;65.94
74327;BME280;62745;51.060;13.786;2022-09-09T10:33:33;99993.50;;;23.34;64.98
74327;BME280;62745;51.060;13.786;2022-09-09T10:36:21;99990.16;;;23.48;64.83
74327;BME280;62745;51.060;13.786;2022-09-09T10:38:52;99991.13;;;23.67;61.65
74327;BME280;62745;51.060;13.786;2022-09-09T10:41:38;99987.03;;;23.69;59.79
74327;BME280;62745;51.060;13.786;2022-09-09T10:44:31;99988.34;;;24.06;58.00
74327;BME280;62745;51.060;13.786;2022-09-09T10:47:19;99977.59;;;24.15;58.62
74327;BME280;62745;51.060;13.786;2022-09-09T10:55:26;99979.56;;;24.62;54.26
74327;BME280;62745;51.060;13.786;2022-09-09T10:57:58;99973.53;;;25.08;52.29
74327;BME280;62745;51.060;13.786;2022-09-09T11:03:03;99964.88;;;25.38;53.77
74327;BME280;62745;51.060;13.786;2022-09-09T11:05:49;99961.16;;;24.92;55.26
74327;BME280;62745;51.060;13.786;2022-09-09T11:08:19;99968.75;;;25.37;54.69
74327;BME280;62745;51.060;13.786;2022-09-09T11:10:50;99962.97;;;25.20;52.14
74327;BME280;62745;51.060;13.786;2022-09-09T11:13:26;99958.72;;;24.47;54.99
74327;BME280;62745;51.060;13.786;2022-09-09T11:16:02;99953.84;;;24.15;55.09
74327;BME280;62745;51.060;13.786;2022-09-09T11:18:31;99936.16;;;23.84;56.00
74327;BME280;62745;51.060;13.786;2022-09-09T11:21:03;99937.97;;;23.93;55.43
74327;BME280;62745;51.060;13.786;2022-09-09T11:23:40;99942.41;;;23.84;57.05
74327;BME280;62745;51.060;13.786;2022-09-09T11:26:15;99957.06;;;23.64;58.44
74327;BME280;62745;51.060;13.786;2022-09-09T11:29:17;99957.25;;;23.39;59.92
74327;BME280;62745;51.060;13.786;2022-09-09T11:32:03;99952.47;;;23.21;58.29
74327;BME280;62745;51.060;13.786;2022-09-09T11:34:39;99962.19;;;22.88;58.93
74327;BME280;62745;51.060;13.786;2022-09-09T11:37:35;99966.78;;;22.92;61.12
74327;BME280;62745;51.060;13.786;2022-09-09T11:42:46;99937.06;;;23.40;58.88
74327;BME280;62745;51.060;13.786;2022-09-09T11:45:24;99938.53;;;23.61;58.35
74327;BME280;62745;51.060;13.786;2022-09-09T11:47:52;99946.94;;;24.23;57.49
74327;BME280;62745;51.060;13.786;2022-09-09T11:52:45;99932.38;;;24.56;53.84
74327;BME280;62745;51.060;13.786;2022-09-09T11:57:57;99945.13;;;23.89;56.47
74327;BME280;62745;51.060;13.786;2022-09-09T12:02:58;99925.53;;;23.48;63.24
74327;BME280;62745;51.060;13.786;2022-09-09T12:05:38;99937.44;;;23.62;62.21
74327;BME280;62745;51.060;13.786;2022-09-09T12:08:06;99940.16;;;23.62;63.21
74327;BME280;62745;51.060;13.786;2022-09-09T12:10:36;99936.56;;;24.92;62.08
74327;BME280;62745;51.060;13.786;2022-09-09T12:13:17;99928.66;;;25.46;59.89
74327;BME280;62745;51.060;13.786;2022-09-09T12:15:48;99901.06;;;26.35;56.90
74327;BME280;62745;51.060;13.786;2022-09-09T12:18:21;99904.91;;;27.56;54.27
74327;BME280;62745;51.060;13.786;2022-09-09T12:23:48;99906.63;;;28.45;48.06
74327;BME280;62745;51.060;13.786;2022-09-09T12:26:38;99900.09;;;29.33;48.82
74327;BME280;62745;51.060;13.786;2022-09-09T12:31:47;99887.59;;;28.09;45.27
74327;BME280;62745;51.060;13.786;2022-09-09T12:34:52;99902.72;;;27.22;48.67
74327;BME280;62745;51.060;13.786;2022-09-09T12:37:35;99907.22;;;26.27;50.84
74327;BME280;62745;51.060;13.786;2022-09-09T12:40:22;99909.75;;;25.96;54.18
74327;BME280;62745;51.060;13.786;2022-09-09T12:42:48;99895.56;;;25.94;52.94
74327;BME280;62745;51.060;13.786;2022-09-09T12:45:21;99898.31;;;26.35;53.61
74327;BME280;62745;51.060;13.786;2022-09-09T12:47:56;99898.03;;;27.45;47.26
74327;BME280;62745;51.060;13.786;2022-09-09T12:50:35;99889.19;;;28.10;45.25
74327;BME280;62745;51.060;13.786;2022-09-09T12:53:07;99892.69;;;27.94;44.86
74327;BME280;62745;51.060;13.786;2022-09-09T12:55:36;99885.41;;;28.37;46.00
74327;BME280;62745;51.060;13.786;2022-09-09T12:58:04;99877.28;;;28.24;44.45
74327;BME280;62745;51.060;13.786;2022-09-09T13:00:31;99884.84;;;28.18;42.65
74327;BME280;62745;51.060;13.786;2022-09-09T13:03:02;99876.59;;;29.61;41.72
74327;BME280;62745;51.060;13.786;2022-09-09T13:05:34;99868.44;;;31.12;38.76
74327;BME280;62745;51.060;13.786;2022-09-09T13:08:01;99868.69;;;31.86;35.47
74327;BME280;62745;51.060;13.786;2022-09-09T13:10:30;99871.66;;;30.52;37.86
74327;BME280;62745;51.060;13.786;2022-09-09T13:12:58;99853.09;;;29.64;39.23
74327;BME280;62745;51.060;13.786;2022-09-09T13:15:26;99859.16;;;28.97;40.54
74327;BME280;62745;51.060;13.786;2022-09-09T13:17:56;99861.16;;;28.31;42.57
74327;BME280;62745;51.060;13.786;2022-09-09T13:20:22;99854.91;;;28.48;41.47
74327;BME280;62745;51.060;13.786;2022-09-09T13:22:49;99846.47;;;28.35;41.91
74327;BME280;62745;51.060;13.786;2022-09-09T13:25:21;99856.38;;;29.31;40.57
74327;BME280;62745;51.060;13.786;2022-09-09T13:27:56;99854.38;;;30.43;37.73
74327;BME280;62745;51.060;13.786;2022-09-09T13:35:34;99846.22;;;29.06;39.97
74327;BME280;62745;51.060;13.786;2022-09-09T13:38:08;99835.25;;;28.14;41.67
74327;BME280;62745;51.060;13.786;2022-09-09T13:40:34;99838.81;;;27.44;44.27
74327;BME280;62745;51.060;13.786;2022-09-09T13:43:00;99841.88;;;27.20;45.17
74327;BME280;62745;51.060;13.786;2022-09-09T13:45:27;99846.72;;;27.01;45.79
74327;BME280;62745;51.060;13.786;2022-09-09T13:47:53;99847.88;;;26.86;43.79
74327;BME280;62745;51.060;13.786;2022-09-09T13:50:29;99833.78;;;26.43;47.10
74327;BME280;62745;51.060;13.786;2022-09-09T13:52:56;99856.03;;;26.42;48.29
74327;BME280;62745;51.060;13.786;2022-09-09T13:55:24;99845.78;;;26.06;47.11
74327;BME280;62745;51.060;13.786;2022-09-09T13:57:57;99857.41;;;25.84;48.39
74327;BME280;62745;51.060;13.786;2022-09-09T14:00:23;99853.88;;;25.51;51.64
74327;BME280;62745;51.060;13.786;2022-09-09T14:02:52;99858.44;;;24.90;51.22
74327;BME280;62745;51.060;13.786;2022-09-09T14:05:20;99861.97;;;24.91;50.44
74327;BME280;62745;51.060;13.786;2022-09-09T14:07:45;99823.44;;;24.74;52.44
74327;BME280;62745;51.060;13.786;2022-09-09T14:10:11;99830.34;;;24.66;53.58
74327;BME280;62745;51.060;13.786;2022-09-09T14:12:37;99838.28;;;24.86;54.95
74327;BME280;62745;51.060;13.786;2022-09-09T14:15:06;99847.13;;;24.78;59.12
74327;BME280;62745;51.060;13.786;2022-09-09T14:17:32;99841.22;;;24.71;59.86
74327;BME280;62745;51.060;13.786;2022-09-09T14:19:58;99827.78;;;24.75;60.34
74327;BME280;62745;51.060;13.786;2022-09-09T14:22:24;99840.38;;;24.52;61.00
74327;BME280;62745;51.060;13.786;2022-09-09T14:24:49;99831.03;;;24.58;61.68
74327;BME280;62745;51.060;13.786;2022-09-09T14:27:16;99821.06;;;24.67;60.86
74327;BME280;62745;51.060;13.786;2022-09-09T14:29:41;99812.34;;;24.84;58.80
74327;BME280;62745;51.060;13.786;2022-09-09T14:32:07;99820.28;;;25.18;58.60
74327;BME280;62745;51.060;13.786;2022-09-09T14:34:32;99807.91;;;25.07;56.73
74327;BME280;62745;51.060;13.786;2022-09-09T14:36:58;99822.75;;;25.01;57.11
74327;BME280;62745;51.060;13.786;2022-09-09T14:39:24;99806.72;;;25.13;57.03
74327;BME280;62745;51.060;13.786;2022-09-09T14:41:49;99795.50;;;25.28;56.88